Kaaawa, Hawaii
Current Conditions -  °F | °C
As of 5:57 AM on Sunday 25 Jan 2015 (Local Time) from PHNG Reporting Station
Overcast Overcast  
Wind Chill: 69°   Ceiling: 3400
Heat Index: 69°   Visibility: NA
Dew Point: 63°   Wind: 16mph
Humidity: 81%   Direction: 50°NE
Pressure: 30.05"   Gusts: NA
Location:  21.54°N, 157.84°W
Report Text: PHNG 251557Z 05014KT FEW023 BKN034 OVC055 21/17 A3005 RMK AO2 RAE09 SLP170 P0000 T02060172 $
Loading
Personal Weather Stations






























Interactive Weather Map New forecast layout! Learn more

10-Day Weather Forecast

Advertisements
Track Severe Weather on mobile